Islamabad Weather



Islamabad's Current Weather

Temprature 32.44o clear sky

clear sky

Rain: 0 %

Min Temprature32o
Max Temprature32.78o
Humidity46
Wind Speed1.5 m/h
Sun Rise05:02:21
Sun Set19:21:27
Current Time: 05-Jul-2020 18:48:38
Lat/Lon: 33.71, 73.13




Islamabad's Geo Location



Islamabad's Weather Forecast

Time Overall Temp Min Temp Max Temp Humidity Wind Speed Rain
05-Jul-2020 (Sun)
20:00:00 few clouds 32.370 32.290 32.370 42 1.32 m/h 0 %
23:00:00 light rain 30.790 30.330 30.790 43 2.18 m/h 20 %
06-Jul-2020 (Mon)
02:00:00 light rain 28.440 28.170 28.440 49 3.56 m/h 96 %
05:00:00 light rain 27.430 27.390 27.430 48 2.51 m/h 27 %
08:00:00 clear sky 33.030 33.030 33.030 33 1.22 m/h 0 %
11:00:00 few clouds 36.900 36.900 36.900 24 2.17 m/h 0 %
14:00:00 clear sky 39.190 39.190 39.190 19 3.21 m/h 0 %
17:00:00 clear sky 39.120 39.120 39.120 17 2.2 m/h 0 %
20:00:00 clear sky 34.750 34.750 34.750 22 1.78 m/h 0 %
23:00:00 clear sky 32.910 32.910 32.910 25 2.52 m/h 0 %
07-Jul-2020 (Tue)
02:00:00 scattered clouds 31.620 31.620 31.620 28 2.92 m/h 0 %
05:00:00 scattered clouds 30.850 30.850 30.850 29 2.95 m/h 0 %
08:00:00 clear sky 36.920 36.920 36.920 21 1.56 m/h 0 %
11:00:00 clear sky 39.690 39.690 39.690 18 3.34 m/h 0 %
14:00:00 scattered clouds 41.680 41.680 41.680 15 3.01 m/h 0 %
17:00:00 few clouds 41.570 41.570 41.570 14 1.97 m/h 0 %
20:00:00 clear sky 36.910 36.910 36.910 18 2.09 m/h 0 %
23:00:00 clear sky 34.970 34.970 34.970 20 2.58 m/h 0 %
08-Jul-2020 (Wed)
02:00:00 clear sky 33.650 33.650 33.650 23 3.03 m/h 0 %
05:00:00 few clouds 32.610 32.610 32.610 28 3.62 m/h 0 %
08:00:00 clear sky 35.450 35.450 35.450 35 3.64 m/h 0 %
11:00:00 clear sky 39.070 39.070 39.070 29 4.54 m/h 0 %
14:00:00 clear sky 41.130 41.130 41.130 20 3.08 m/h 0 %
17:00:00 few clouds 41.620 41.620 41.620 18 1.63 m/h 0 %
20:00:00 clear sky 37.520 37.520 37.520 22 0.78 m/h 0 %
23:00:00 clear sky 35.280 35.280 35.280 27 3.06 m/h 0 %
09-Jul-2020 (Thu)
02:00:00 scattered clouds 33.830 33.830 33.830 34 4.8 m/h 0 %
05:00:00 scattered clouds 31.800 31.800 31.800 43 3.49 m/h 0 %
08:00:00 light rain 34.380 34.380 34.380 43 4.68 m/h 14 %
11:00:00 scattered clouds 38.410 38.410 38.410 34 6.09 m/h 0 %
14:00:00 clear sky 41.250 41.250 41.250 24 4.35 m/h 0 %
17:00:00 few clouds 41.840 41.840 41.840 20 3.46 m/h 0 %
20:00:00 light rain 36.500 36.500 36.500 31 4 m/h 10 %
23:00:00 light rain 30.060 30.060 30.060 52 4.61 m/h 299 %
10-Jul-2020 (Fri)
02:00:00 moderate rain 27.940 27.940 27.940 58 4.1 m/h 322 %
05:00:00 moderate rain 27.280 27.280 27.280 62 2.71 m/h 380 %
08:00:00 few clouds 31.610 31.610 31.610 44 1.01 m/h 0 %
11:00:00 few clouds 35.010 35.010 35.010 36 2.66 m/h 0 %
14:00:00 clear sky 38.060 38.060 38.060 30 3.19 m/h 0 %
17:00:00 clear sky 38.550 38.550 38.550 28 2.55 m/h 0 %


Islamabad's Tourist Spots

Historical Places in Islamabad

Famous Cities (60)